Time;durP1;ratioP1;P1;durP2;ratioP2;P2;SDS_P1;SDS_P2;PMS_P1;PMS_P2;Temp;Humidity;BMP_temperature;BMP_pressure;BME280_temperature;BME280_humidity;BME280_pressure;Samples;Min_cycle;Max_cycle;Signal;HPM_P1;HPM_P2
2023/01/11 06:24:18;;;;;;;;;;;;;;;6.82;78.83;98013.59;4831058;29;19951;-66
2023/01/11 06:26:43;;;;;;;;;;;;;;;6.68;78.12;98011.78;4834439;29;20385;-67
2023/01/11 06:29:10;;;;;;;;;;;;;;;6.57;78.80;98006.28;4840667;29;19921;-67
2023/01/11 06:31:35;;;;;;;;;;;;;;;6.47;79.60;98015.53;4838619;29;19920;-67
2023/01/11 06:34:00;;;;;;;;;;;;;;;6.40;79.28;98017.63;4843850;29;20285;-67
2023/01/11 06:36:25;;;;;;;;;;;;;;;6.33;79.95;98022.38;4848374;29;20273;-67
2023/01/11 06:38:51;;;;;;;;;;;;;;;6.28;79.98;98026.97;4847715;29;20292;-67
2023/01/11 06:41:16;;;;;;;;;;;;;;;6.24;80.42;98030.66;4832534;29;20367;-67
2023/01/11 06:43:41;;;;;;;;;;;;;;;6.21;80.57;98025.63;4834685;29;19983;-66
2023/01/11 06:46:13;;;;;;;;;;;;;;;6.19;80.46;98027.47;4863244;29;19973;-67
2023/01/11 06:48:38;;;;;;;;;;;;;;;6.17;80.97;98026.72;4850606;29;19924;-67
2023/01/11 06:51:03;;;;;;;;;;;;;;;6.13;80.60;98018.22;4858929;29;19925;-67
2023/01/11 06:53:29;;;;;;;;;;;;;;;6.11;80.87;98014.00;4839610;29;19921;-66
2023/01/11 06:55:54;;;;;;;;;;;;;;;6.13;82.17;98006.97;4847171;29;19968;-67
2023/01/11 06:58:22;;;;;;;;;;;;;;;6.11;81.47;98003.59;4836072;29;20039;-67
2023/01/11 07:00:47;;;;;;;;;;;;;;;6.08;81.84;98002.00;4838292;29;19970;-64
2023/01/11 07:03:12;;;;;;;;;;;;;;;6.07;81.45;98002.94;4835146;29;19921;-65
2023/01/11 07:05:38;;;;;;;;;;;;;;;6.08;81.67;97998.56;4840595;29;19988;-64
2023/01/11 07:08:03;;;;;;;;;;;;;;;6.07;81.71;98007.31;4835645;29;19921;-64
2023/01/11 07:10:28;;;;;;;;;;;;;;;6.08;81.96;98001.16;4834120;29;19921;-67
2023/01/11 07:12:53;;;;;;;;;;;;;;;6.03;81.12;98000.56;4839579;29;19989;-64
2023/01/11 07:15:19;;;;;;;;;;;;;;;6.07;81.60;98002.09;4845697;29;19931;-65
2023/01/11 16:27:23;;;;;;;;;;;;;;;8.30;91.06;97970.78;5046247;23;20000;-66
2023/01/11 16:29:48;;;;;;;;;;;;;;;8.28;90.96;97972.66;4855021;29;19928;-67
2023/01/11 16:32:18;;;;;;;;;;;;;;;8.25;90.72;97975.44;4855489;29;19924;-66
2023/01/11 16:34:44;;;;;;;;;;;;;;;8.27;90.36;97981.44;4856886;29;19924;-66
2023/01/11 16:37:17;;;;;;;;;;;;;;;8.22;90.20;97985.25;4859342;29;20019;-66
2023/01/11 16:39:42;;;;;;;;;;;;;;;8.17;90.80;97988.16;4855390;29;22117;-67
2023/01/11 16:42:08;;;;;;;;;;;;;;;8.15;90.75;97979.56;4853464;29;19952;-66
2023/01/11 16:44:50;;;;;;;;;;;;;;;8.11;90.39;97998.16;4854532;29;19963;-68
2023/01/11 16:47:16;;;;;;;;;;;;;;;8.06;91.00;97995.84;4833155;29;19920;-66
2023/01/11 16:49:42;;;;;;;;;;;;;;;8.03;90.92;97996.03;4858853;29;19939;-66
2023/01/11 16:52:25;;;;;;;;;;;;;;;8.01;91.23;98003.09;4852843;29;19994;-67
2023/01/11 16:54:51;;;;;;;;;;;;;;;8.01;90.79;98008.31;4859969;29;20365;-64
2023/01/11 16:57:16;;;;;;;;;;;;;;;8.01;90.86;98008.31;4851834;29;19921;-66
2023/01/11 16:59:41;;;;;;;;;;;;;;;7.98;91.28;98013.72;4857473;29;20182;-66
2023/01/11 17:02:24;;;;;;;;;;;;;;;7.98;91.05;98018.97;4851898;29;19921;-66
2023/01/11 17:04:49;;;;;;;;;;;;;;;7.98;91.06;98014.59;4859059;29;19926;-66
2023/01/11 17:07:27;;;;;;;;;;;;;;;7.96;91.28;98021.69;4854403;29;20359;-66
2023/01/11 17:09:53;;;;;;;;;;;;;;;7.88;91.82;98023.94;4857980;29;19928;-66
2023/01/11 17:12:19;;;;;;;;;;;;;;;7.86;91.98;98023.16;4848677;29;19917;-68
2023/01/11 17:14:44;;;;;;;;;;;;;;;7.82;91.76;98030.34;4859834;29;19940;-67
2023/01/11 17:17:09;;;;;;;;;;;;;;;7.82;91.81;98030.34;4850182;29;20388;-66
2023/01/11 17:19:35;;;;;;;;;;;;;;;7.80;92.18;98036.59;4857400;29;19976;-67
2023/01/11 17:22:16;;;;;;;;;;;;;;;7.79;91.39;98035.75;4856601;29;19931;-67
2023/01/11 17:24:42;;;;;;;;;;;;;;;7.75;92.00;98044.69;4853964;29;19923;-67
2023/01/11 17:27:14;;;;;;;;;;;;;;;7.78;91.22;98051.53;4851317;29;19920;-65
